Time;durP1;ratioP1;P1;durP2;ratioP2;P2;SDS_P1;SDS_P2;PMS_P1;PMS_P2;Temp;Humidity;BMP_temperature;BMP_pressure;BME280_temperature;BME280_humidity;BME280_pressure;Samples;Min_cycle;Max_cycle;Signal;HPM_P1;HPM_P2
2022/05/22 00:00:36;;;;;;;7.00;3.17;;;;;;;10.61;100.00;99383.53;4221308;28;20308;-69
2022/05/22 00:03:04;;;;;;;6.80;3.50;;;;;;;10.63;100.00;99373.50;4251458;28;20301;-71
2022/05/22 00:05:32;;;;;;;6.03;3.30;;;;;;;10.59;100.00;99377.53;4236885;28;21741;-72
2022/05/22 00:07:58;;;;;;;6.57;3.50;;;;;;;10.50;100.00;99372.22;4233051;28;20294;-73
2022/05/22 00:10:25;;;;;;;7.77;3.67;;;;;;;10.48;100.00;99370.75;4247716;28;24576;-74
2022/05/22 00:12:51;;;;;;;6.03;3.43;;;;;;;10.50;100.00;99369.56;4242094;28;20725;-72
2022/05/22 00:15:18;;;;;;;5.50;3.33;;;;;;;10.46;100.00;99372.75;4226249;28;22828;-71
2022/05/22 00:17:44;;;;;;;8.97;3.90;;;;;;;10.47;100.00;99372.56;4233863;28;20242;-72
2022/05/22 00:20:12;;;;;;;9.33;3.50;;;;;;;10.48;100.00;99370.75;4234897;28;21444;-72
2022/05/22 00:22:39;;;;;;;5.87;3.40;;;;;;;10.38;100.00;99378.91;4251818;28;20230;-71
2022/05/22 00:25:06;;;;;;;6.47;3.27;;;;;;;10.44;100.00;99372.94;4220308;28;20226;-72
2022/05/22 00:27:32;;;;;;;6.90;3.50;;;;;;;10.44;100.00;99370.28;4225750;28;20277;-70
2022/05/22 00:29:59;;;;;;;6.07;3.23;;;;;;;10.46;100.00;99370.91;4249486;28;20264;-71
2022/05/22 00:32:26;;;;;;;4.93;3.40;;;;;;;10.45;100.00;99369.25;4232793;28;22983;-72
2022/05/22 00:34:53;;;;;;;6.80;3.00;;;;;;;10.49;100.00;99373.25;4239049;28;20799;-70
2022/05/22 00:37:19;;;;;;;5.33;2.90;;;;;;;10.54;100.00;99372.72;4237330;28;20227;-71
2022/05/22 00:39:46;;;;;;;7.27;2.70;;;;;;;10.55;100.00;99372.53;4241543;28;20290;-72
2022/05/22 00:42:18;;;;;;;4.40;2.43;;;;;;;10.62;100.00;99371.88;4241514;28;20289;-71
2022/05/22 00:44:45;;;;;;;3.93;2.57;;;;;;;10.57;100.00;99381.19;4227958;28;20311;-71
2022/05/22 00:47:12;;;;;;;8.20;2.90;;;;;;;10.53;100.00;99376.38;4225803;28;20273;-71
2022/05/22 00:49:42;;;;;;;3.47;2.30;;;;;;;10.50;100.00;99385.53;4236990;28;24057;-73
2022/05/22 00:52:18;;;;;;;6.10;2.90;;;;;;;10.51;100.00;99373.91;4239326;28;20456;-71
2022/05/22 00:54:56;;;;;;;4.50;2.60;;;;;;;10.53;100.00;99371.06;4237041;28;23396;-70
2022/05/22 00:57:54;;;;;;;12.13;2.80;;;;;;;10.61;100.00;99380.88;4225899;28;21379;-73
2022/05/22 01:00:24;;;;;;;4.73;2.47;;;;;;;10.51;100.00;99368.59;4230328;28;20294;-70
2022/05/22 01:05:36;;;;;;;3.07;2.10;;;;;;;10.53;100.00;99369.22;4242585;28;20408;-70
2022/05/22 01:08:04;;;;;;;10.83;2.73;;;;;;;10.50;100.00;99374.06;4237973;28;20227;-71
2022/05/22 01:10:37;;;;;;;4.57;2.47;;;;;;;10.55;100.00;99367.22;4241741;28;20539;-71
2022/05/22 01:13:04;;;;;;;4.30;2.23;;;;;;;10.50;100.00;99377.53;4228438;28;20841;-72
2022/05/22 01:15:32;;;;;;;5.13;2.60;;;;;;;10.40;100.00;99366.28;4226032;28;20389;-72
2022/05/22 01:17:58;;;;;;;6.90;3.10;;;;;;;10.36;100.00;99375.59;4230816;28;20262;-71
2022/05/22 01:20:25;;;;;;;4.60;2.40;;;;;;;10.38;100.00;99378.91;4244302;28;25087;-72
2022/05/22 01:22:52;;;;;;;3.87;2.53;;;;;;;10.35;100.00;99382.75;4233885;28;20407;-70
2022/05/22 01:25:18;;;;;;;2.67;1.93;;;;;;;10.40;100.00;99389.41;4240872;28;20239;-71
2022/05/22 01:27:45;;;;;;;3.40;2.57;;;;;;;10.35;99.88;99388.06;4240057;28;20234;-72
2022/05/22 01:30:21;;;;;;;12.70;2.70;;;;;;;10.38;100.00;99386.91;4240029;28;21712;-72
2022/05/22 01:32:49;;;;;;;4.27;2.87;;;;;;;10.42;100.00;99382.06;4239578;28;20237;-70
2022/05/22 01:35:19;;;;;;;4.10;2.40;;;;;;;10.33;100.00;99386.56;4229966;28;20233;-71
2022/05/22 01:37:46;;;;;;;4.03;2.30;;;;;;;10.31;100.00;99393.88;4228826;28;21050;-71
2022/05/22 01:40:13;;;;;;;3.33;2.03;;;;;;;10.30;100.00;99400.19;4244573;28;20233;-72
2022/05/22 01:42:40;;;;;;;3.97;2.20;;;;;;;10.29;100.00;99387.91;4256579;28;20226;-72
2022/05/22 01:45:09;;;;;;;5.13;2.43;;;;;;;10.21;100.00;99388.72;4239142;28;20228;-73
2022/05/22 01:47:36;;;;;;;4.87;2.60;;;;;;;10.19;100.00;99392.56;4225980;28;20241;-69
2022/05/22 01:50:05;;;;;;;3.90;2.43;;;;;;;10.18;100.00;99391.69;4240908;28;20228;-70
2022/05/22 01:52:32;;;;;;;4.97;2.07;;;;;;;10.14;100.00;99401.84;4228357;28;21268;-70
2022/05/22 01:54:58;;;;;;;7.83;2.30;;;;;;;10.12;100.00;99389.72;4231578;28;21755;-71
2022/05/22 01:57:25;;;;;;;6.97;2.60;;;;;;;10.15;100.00;99392.88;4240773;28;20247;-71
2022/05/22 01:59:52;;;;;;;4.10;1.97;;;;;;;10.21;100.00;99402.03;4241776;28;20235;-70
2022/05/22 02:02:19;;;;;;;2.87;1.70;;;;;;;10.23;99.76;99404.50;4242170;28;20314;-70
2022/05/22 02:04:45;;;;;;;4.20;2.03;;;;;;;10.20;99.62;99404.84;4241965;28;20249;-69
2022/05/22 02:10:03;;;;;;;4.27;1.80;;;;;;;10.17;99.48;99407.84;4237166;28;20712;-72
2022/05/22 02:12:30;;;;;;;3.60;1.60;;;;;;;10.13;98.69;99405.50;4236303;28;23012;-72
2022/05/22 02:14:58;;;;;;;2.60;1.70;;;;;;;10.14;98.80;99404.50;4241201;28;20583;-70
2022/05/22 02:17:24;;;;;;;2.90;1.40;;;;;;;10.08;98.91;99397.19;4256253;28;20399;-70
2022/05/22 02:19:51;;;;;;;5.37;1.60;;;;;;;10.07;98.84;99406.19;4233068;28;21001;-70
2022/05/22 02:22:17;;;;;;;4.00;1.50;;;;;;;10.09;98.90;99403.34;4232191;28;20502;-69
2022/05/22 02:24:49;;;;;;;4.07;1.77;;;;;;;10.11;98.40;99404.84;4251384;28;20299;-71
2022/05/22 02:27:16;;;;;;;3.20;1.67;;;;;;;10.11;98.06;99402.19;4241674;28;22138;-69
2022/05/22 02:29:43;;;;;;;3.27;1.50;;;;;;;10.13;98.45;99405.50;4231169;28;25177;-69
2022/05/22 02:32:09;;;;;;;3.77;1.77;;;;;;;10.12;98.26;99403.84;4237046;28;21221;-70
2022/05/22 02:34:36;;;;;;;3.33;1.70;;;;;;;10.13;97.87;99402.84;4242395;28;20261;-70
2022/05/22 02:37:03;;;;;;;4.50;2.03;;;;;;;10.13;97.63;99404.66;4237311;28;22298;-72
2022/05/22 02:39:30;;;;;;;3.20;1.97;;;;;;;10.18;97.96;99404.16;4240724;28;20226;-72
2022/05/22 02:42:04;;;;;;;2.07;1.73;;;;;;;10.18;97.06;99397.03;4234201;28;20234;-71
2022/05/22 02:44:30;;;;;;;3.50;2.00;;;;;;;10.12;96.74;99398.53;4242078;28;20640;-71
2022/05/22 02:46:57;;;;;;;2.70;1.73;;;;;;;10.10;96.57;99405.00;4239635;28;20258;-69
2022/05/22 02:49:24;;;;;;;3.93;2.43;;;;;;;10.14;97.34;99406.34;4223296;28;21675;-69
2022/05/22 02:51:51;;;;;;;3.27;1.97;;;;;;;10.13;96.36;99405.50;4236214;28;20260;-70
2022/05/22 02:54:18;;;;;;;4.97;2.20;;;;;;;10.17;96.03;99399.88;4235201;28;21676;-70
2022/05/22 02:56:44;;;;;;;7.83;2.40;;;;;;;10.10;96.36;99400.53;4240188;28;23404;-70
2022/05/22 02:59:11;;;;;;;3.00;2.07;;;;;;;10.05;96.83;99404.69;4232814;28;20333;-69
2022/05/22 03:01:37;;;;;;;3.83;2.27;;;;;;;10.13;96.38;99405.50;4233077;28;20413;-70
2022/05/22 03:04:04;;;;;;;4.70;2.33;;;;;;;10.19;96.03;99408.50;4243826;28;20405;-71
2022/05/22 03:06:38;;;;;;;3.90;1.90;;;;;;;10.12;96.52;99414.47;4237636;28;20600;-71
2022/05/22 03:09:05;;;;;;;3.70;2.10;;;;;;;10.14;96.19;99411.66;4242286;28;20235;-70
2022/05/22 03:11:32;;;;;;;4.17;1.77;;;;;;;10.12;96.48;99411.81;4229189;28;20222;-70
2022/05/22 03:13:59;;;;;;;6.00;2.03;;;;;;;10.05;96.68;99412.66;4237329;28;23670;-70
2022/05/22 03:16:25;;;;;;;4.13;1.90;;;;;;;10.11;95.85;99407.50;4244820;28;20246;-70
2022/05/22 03:18:52;;;;;;;3.03;1.93;;;;;;;10.09;95.77;99414.81;4237135;28;20293;-70
2022/05/22 03:21:18;;;;;;;6.30;2.20;;;;;;;10.09;96.51;99414.81;4245215;28;20223;-70
2022/05/22 03:23:45;;;;;;;2.30;1.73;;;;;;;10.19;95.45;99406.66;4277893;28;20294;-71
2022/05/22 03:26:12;;;;;;;2.90;2.17;;;;;;;10.16;95.79;99415.00;4264690;28;22224;-72
2022/05/22 03:28:38;;;;;;;3.57;2.30;;;;;;;10.16;96.02;99412.34;4248298;28;20252;-70
2022/05/22 03:31:05;;;;;;;4.00;1.93;;;;;;;10.17;95.54;99410.50;4256921;28;21771;-69
2022/05/22 03:33:33;;;;;;;3.80;2.40;;;;;;;10.18;96.12;99412.16;4247965;28;21953;-71
2022/05/22 03:36:05;;;;;;;4.47;2.63;;;;;;;10.17;96.03;99406.00;4346792;28;20237;-70
2022/05/22 03:38:35;;;;;;;2.40;2.20;;;;;;;10.24;95.74;99411.50;4334764;28;20239;-72
2022/05/22 03:41:02;;;;;;;5.97;2.40;;;;;;;10.15;96.55;99414.13;4287683;28;21601;-70
2022/05/22 03:43:29;;;;;;;4.60;2.43;;;;;;;10.01;96.94;99404.19;4304853;28;21620;-70
2022/05/22 03:45:56;;;;;;;3.90;2.37;;;;;;;9.96;97.92;99403.84;4281331;28;20254;-70
2022/05/22 03:48:22;;;;;;;5.27;2.57;;;;;;;10.09;96.03;99404.19;4297652;28;21662;-69
2022/05/22 03:50:49;;;;;;;3.97;2.40;;;;;;;10.04;96.90;99409.16;4262697;28;20231;-70
2022/05/22 03:53:16;;;;;;;9.27;2.60;;;;;;;10.03;96.61;99418.13;4344116;28;20234;-71
2022/05/22 03:55:42;;;;;;;7.00;2.90;;;;;;;10.03;96.88;99409.34;4316330;28;20563;-72
2022/05/22 03:58:10;;;;;;;4.17;2.10;;;;;;;10.07;96.40;99406.19;4317397;28;20239;-70
2022/05/22 04:00:37;;;;;;;2.80;2.30;;;;;;;10.10;96.18;99416.47;4328062;28;20234;-70
2022/05/22 04:03:03;;;;;;;4.30;2.67;;;;;;;10.13;96.19;99416.13;4340271;28;20339;-71
2022/05/22 04:05:32;;;;;;;4.30;2.47;;;;;;;10.21;95.65;99414.47;4330643;28;20229;-70
2022/05/22 04:07:59;;;;;;;6.77;2.73;;;;;;;10.24;95.76;99414.16;4305812;28;21916;-70
2022/05/22 04:10:26;;;;;;;3.27;2.20;;;;;;;10.23;95.51;99415.97;4309379;28;21960;-70
2022/05/22 04:12:52;;;;;;;4.33;2.10;;;;;;;10.18;95.90;99422.78;4294314;28;20703;-69
2022/05/22 04:15:20;;;;;;;6.63;2.57;;;;;;;10.19;95.13;99424.47;4354613;28;20237;-70
2022/05/22 04:17:47;;;;;;;3.00;2.10;;;;;;;10.27;95.50;99422.59;4394027;28;21934;-69
2022/05/22 04:20:17;;;;;;;3.57;1.70;;;;;;;10.25;94.64;99429.09;4299953;28;25456;-70
2022/05/22 04:25:29;;;;;;;3.10;2.00;;;;;;;10.34;94.31;99423.63;4299971;28;20330;-70
2022/05/22 04:27:56;;;;;;;3.07;1.73;;;;;;;10.30;94.43;99426.78;4338809;28;22179;-70
2022/05/22 04:30:23;;;;;;;3.47;2.00;;;;;;;10.36;94.62;99431.44;4333302;28;20233;-71
2022/05/22 04:32:51;;;;;;;5.53;2.20;;;;;;;10.25;94.48;99424.59;4301012;28;20777;-71
2022/05/22 04:35:20;;;;;;;2.53;1.83;;;;;;;10.26;94.31;99422.78;4380225;28;20476;-70
2022/05/22 04:37:47;;;;;;;2.90;1.97;;;;;;;10.29;94.31;99407.34;4302502;28;22890;-71
2022/05/22 04:40:13;;;;;;;2.57;1.73;;;;;;;10.28;94.57;99418.13;4294698;28;20249;-69
2022/05/22 04:42:41;;;;;;;2.60;1.87;;;;;;;10.19;94.76;99416.47;4330626;28;20715;-71
2022/05/22 04:45:09;;;;;;;3.30;2.10;;;;;;;10.19;95.69;99419.97;4289747;28;22011;-71
2022/05/22 04:47:37;;;;;;;2.80;1.93;;;;;;;10.33;94.71;99426.47;4258296;28;21621;-69
2022/05/22 04:50:05;;;;;;;6.37;1.83;;;;;;;10.30;94.35;99424.13;4272747;28;20314;-69
2022/05/22 04:52:33;;;;;;;3.03;1.87;;;;;;;10.17;94.41;99413.97;4267654;28;21157;-69
2022/05/22 04:55:00;;;;;;;4.67;1.93;;;;;;;10.26;94.46;99420.94;4257066;28;20242;-72
2022/05/22 04:57:27;;;;;;;3.70;1.87;;;;;;;10.29;94.18;99419.81;4276642;28;22866;-70
2022/05/22 04:59:54;;;;;;;3.47;1.70;;;;;;;10.30;93.93;99429.44;4251855;28;20227;-69
2022/05/22 05:02:22;;;;;;;4.23;2.20;;;;;;;10.28;94.16;99423.44;4267562;28;20227;-70
2022/05/22 05:04:53;;;;;;;2.37;1.80;;;;;;;10.29;94.44;99430.44;4246586;28;20237;-70
2022/05/22 05:07:19;;;;;;;5.23;2.10;;;;;;;10.41;93.21;99423.78;4233876;28;20326;-70
2022/05/22 05:09:47;;;;;;;5.17;2.00;;;;;;;10.27;93.51;99430.56;4241783;28;20287;-71
2022/05/22 05:12:14;;;;;;;3.03;2.50;;;;;;;10.22;93.98;99437.41;4244530;28;20234;-70
2022/05/22 05:14:41;;;;;;;4.47;2.27;;;;;;;10.21;94.24;99433.06;4245285;28;20226;-71
2022/05/22 05:17:09;;;;;;;4.20;2.37;;;;;;;10.24;94.22;99433.59;4244380;28;20327;-71
2022/05/22 05:19:36;;;;;;;5.10;2.30;;;;;;;10.31;94.10;99428.47;4242519;28;20250;-71
2022/05/22 05:22:03;;;;;;;3.43;2.63;;;;;;;10.40;93.49;99430.09;4244315;28;20239;-70
2022/05/22 05:24:29;;;;;;;6.93;2.33;;;;;;;10.32;93.56;99438.09;4229796;28;20234;-71
2022/05/22 05:27:01;;;;;;;4.63;2.27;;;;;;;10.29;93.90;99435.78;4235851;28;20273;-71
2022/05/22 05:29:47;;;;;;;3.80;1.90;;;;;;;10.34;93.27;99434.25;4243793;28;22052;-71
2022/05/22 05:32:20;;;;;;;2.93;2.00;;;;;;;10.40;93.16;99427.44;4274245;28;20241;-70
2022/05/22 05:34:48;;;;;;;4.47;2.10;;;;;;;10.41;93.02;99422.94;4243583;28;20470;-73
2022/05/22 05:37:14;;;;;;;6.07;2.30;;;;;;;10.35;92.56;99425.28;4251119;28;20637;-72
2022/05/22 05:39:41;;;;;;;4.80;2.20;;;;;;;10.48;93.00;99426.59;4246672;28;23341;-71
2022/05/22 05:42:08;;;;;;;3.63;1.87;;;;;;;10.74;91.47;99424.53;4240679;28;22584;-71
2022/05/22 05:44:35;;;;;;;5.23;1.80;;;;;;;11.30;88.66;99434.28;4297698;28;20221;-71
2022/05/22 05:47:02;;;;;;;3.13;1.70;;;;;;;12.15;85.08;99436.09;4281342;28;20425;-71
2022/05/22 05:49:28;;;;;;;3.60;2.00;;;;;;;12.81;81.39;99436.28;4255064;28;20235;-72
2022/05/22 05:51:55;;;;;;;3.27;1.60;;;;;;;12.62;80.44;99427.00;4265166;28;20228;-71
2022/05/22 05:54:37;;;;;;;2.60;1.40;;;;;;;12.62;79.59;99435.81;4237212;28;21265;-71
2022/05/22 05:57:04;;;;;;;4.13;1.63;;;;;;;12.68;79.63;99435.06;4263009;28;20227;-68
2022/05/22 05:59:33;;;;;;;3.90;1.63;;;;;;;12.64;79.51;99438.28;4252243;28;20337;-71
2022/05/22 06:02:00;;;;;;;4.07;1.47;;;;;;;13.10;78.00;99441.59;4259095;28;20238;-72
2022/05/22 06:04:27;;;;;;;2.60;1.30;;;;;;;13.12;77.77;99443.28;4242316;28;22581;-71
2022/05/22 06:06:54;;;;;;;2.93;1.43;;;;;;;13.72;73.80;99445.66;4273134;28;20775;-71
2022/05/22 06:09:20;;;;;;;4.27;1.47;;;;;;;13.82;72.81;99442.66;4237361;28;20235;-76
2022/05/22 06:11:47;;;;;;;3.30;1.40;;;;;;;13.19;75.68;99439.66;4243160;28;20322;-72
2022/05/22 06:14:16;;;;;;;6.53;1.37;;;;;;;12.81;78.26;99433.63;4236482;28;20518;-73
2022/05/22 06:16:42;;;;;;;2.90;1.40;;;;;;;12.42;79.17;99440.00;4252907;28;20230;-70
2022/05/22 06:19:09;;;;;;;2.10;1.40;;;;;;;12.17;79.60;99447.41;4251944;28;20234;-69
2022/05/22 06:21:36;;;;;;;2.20;1.27;;;;;;;12.02;81.56;99445.53;4257749;28;20404;-71
2022/05/22 06:24:02;;;;;;;5.03;1.67;;;;;;;12.99;77.98;99450.06;4255556;28;20683;-70
2022/05/22 06:26:29;;;;;;;2.67;1.20;;;;;;;13.32;76.12;99452.38;4276309;28;20227;-70
2022/05/22 06:28:58;;;;;;;2.67;1.40;;;;;;;13.39;76.06;99460.47;4244565;28;21012;-69
2022/05/22 06:31:24;;;;;;;3.77;1.47;;;;;;;12.93;73.55;99439.31;4264088;28;20256;-70
2022/05/22 06:33:51;;;;;;;2.53;1.20;;;;;;;12.70;74.91;99444.75;4251080;28;21252;-70
2022/05/22 06:36:18;;;;;;;3.30;1.20;;;;;;;12.35;76.49;99444.41;4254923;28;20257;-69
2022/05/22 06:41:30;;;;;;;2.47;1.33;;;;;;;12.08;80.86;99445.81;4246076;28;21276;-69
2022/05/22 06:43:57;;;;;;;1.33;1.23;;;;;;;12.30;78.04;99436.97;4241226;28;20348;-70
2022/05/22 06:46:30;;;;;;;3.40;1.20;;;;;;;13.03;75.00;99448.69;4260002;28;21757;-73
2022/05/22 06:48:58;;;;;;;3.37;1.10;;;;;;;12.88;72.17;99451.38;4241398;28;20243;-69
2022/05/22 06:51:24;;;;;;;2.27;1.23;;;;;;;12.30;75.43;99452.13;4249287;28;20249;-70
2022/05/22 06:53:51;;;;;;;2.80;1.30;;;;;;;12.10;76.44;99447.28;4255324;28;20637;-69
2022/05/22 06:56:20;;;;;;;2.40;1.20;;;;;;;12.46;75.63;99446.66;4247471;28;20397;-75
2022/05/22 06:58:47;;;;;;;3.03;1.07;;;;;;;12.57;74.91;99440.03;4237869;28;21177;-69
2022/05/22 07:01:15;;;;;;;3.97;1.30;;;;;;;12.18;76.71;99455.22;4250181;28;20240;-72
2022/05/22 07:03:42;;;;;;;1.33;1.07;;;;;;;13.54;72.54;99455.94;4239848;28;20965;-72
2022/05/22 07:06:09;;;;;;;2.50;1.23;;;;;;;15.19;64.31;99455.66;4264266;28;20262;-74
2022/05/22 07:08:36;;;;;;;1.10;0.97;;;;;;;14.44;66.05;99457.19;4243244;28;20236;-74
2022/05/22 07:13:48;;;;;;;1.90;1.10;;;;;;;13.15;69.06;99448.22;4233880;28;20342;-74
2022/05/22 07:16:14;;;;;;;2.93;1.30;;;;;;;12.82;70.70;99452.09;4244567;28;22756;-76
2022/05/22 07:18:51;;;;;;;2.83;1.20;;;;;;;12.95;71.26;99451.47;4236409;28;20300;-73
2022/05/22 07:21:17;;;;;;;3.60;1.20;;;;;;;12.57;72.86;99448.88;4229150;28;22391;-71
2022/05/22 07:23:44;;;;;;;4.33;1.30;;;;;;;12.63;73.07;99452.66;4271912;28;20279;-71
2022/05/22 07:26:12;;;;;;;2.00;1.13;;;;;;;12.32;75.33;99450.13;4252228;28;20238;-72
2022/05/22 07:28:39;;;;;;;2.17;1.20;;;;;;;12.30;74.80;99465.47;4236432;28;20636;-71
2022/05/22 07:31:13;;;;;;;2.87;1.33;;;;;;;13.22;70.50;99457.97;4240232;28;21775;-72
2022/05/22 07:33:39;;;;;;;2.30;1.10;;;;;;;13.68;68.50;99452.38;4289885;28;20303;-70
2022/05/22 07:36:06;;;;;;;5.17;1.20;;;;;;;13.63;69.38;99454.81;4295048;28;25224;-71
2022/05/22 07:38:32;;;;;;;3.30;1.17;;;;;;;13.93;67.61;99449.38;4327340;28;20807;-69
2022/05/22 07:40:59;;;;;;;1.50;1.00;;;;;;;14.56;66.22;99455.69;4268513;28;20285;-67
2022/05/22 07:43:27;;;;;;;1.13;1.00;;;;;;;14.63;63.40;99445.00;4276682;28;20311;-68
2022/05/22 07:45:54;;;;;;;2.83;1.20;;;;;;;13.66;66.53;99454.41;4275958;28;20260;-69
2022/05/22 07:48:21;;;;;;;5.00;1.10;;;;;;;13.47;68.10;99461.19;4314583;28;20252;-70
2022/05/22 07:50:58;;;;;;;4.43;1.30;;;;;;;13.26;69.79;99453.09;4269170;28;20241;-69
2022/05/22 07:53:26;;;;;;;6.80;1.17;;;;;;;13.26;70.46;99464.63;4271389;28;21690;-67
2022/05/22 07:55:53;;;;;;;6.90;1.40;;;;;;;13.77;69.02;99455.78;4288433;28;21419;-67
2022/05/22 07:58:22;;;;;;;3.93;1.23;;;;;;;14.08;68.84;99463.50;4306690;28;20239;-71
2022/05/22 08:00:50;;;;;;;2.23;1.20;;;;;;;14.38;67.66;99465.19;4298002;28;21032;-69
2022/05/22 08:03:17;;;;;;;2.20;1.50;;;;;;;14.06;66.15;99459.34;4311519;28;20506;-74
2022/05/22 08:05:44;;;;;;;2.30;1.30;;;;;;;13.66;68.02;99458.94;4285588;28;20235;-69
2022/05/22 08:08:11;;;;;;;4.40;1.20;;;;;;;13.82;67.84;99455.22;4281858;28;21727;-70
2022/05/22 08:10:39;;;;;;;3.80;1.37;;;;;;;13.69;67.12;99451.34;4343355;28;20360;-68
2022/05/22 08:13:07;;;;;;;2.20;1.00;;;;;;;13.66;67.47;99443.72;4307613;28;20637;-71
2022/05/22 08:15:35;;;;;;;2.77;0.83;;;;;;;13.48;68.07;99460.16;4260857;28;20226;-71
2022/05/22 08:18:03;;;;;;;2.03;0.90;;;;;;;13.40;69.64;99462.97;4234973;28;22203;-70
2022/05/22 08:20:33;;;;;;;2.90;1.30;;;;;;;13.04;70.43;99454.84;4245909;28;20301;-68
2022/05/22 08:23:03;;;;;;;3.87;1.10;;;;;;;13.03;71.03;99464.72;4238880;28;20238;-69
2022/05/22 08:25:30;;;;;;;2.80;1.10;;;;;;;13.18;70.28;99455.88;4292682;28;20477;-71
2022/05/22 08:27:58;;;;;;;2.50;1.40;;;;;;;13.45;69.48;99478.44;4250010;28;20895;-71
2022/05/22 08:30:27;;;;;;;2.50;1.03;;;;;;;13.50;67.79;99463.50;4287357;28;24967;-73
2022/05/22 08:32:54;;;;;;;2.90;0.87;;;;;;;13.49;68.42;99458.34;4278119;28;23324;-72
2022/05/22 08:35:24;;;;;;;1.97;0.90;;;;;;;13.88;67.00;99462.47;4275300;28;20230;-72
2022/05/22 08:37:50;;;;;;;1.57;0.90;;;;;;;14.13;65.57;99454.88;4287413;28;20670;-76
2022/05/22 08:40:20;;;;;;;4.10;1.17;;;;;;;14.56;63.28;99468.22;4314653;28;20243;-73
2022/05/22 08:42:48;;;;;;;2.67;0.90;;;;;;;14.84;62.18;99456.69;4251885;28;21601;-73
2022/05/22 08:45:28;;;;;;;3.23;1.00;;;;;;;14.33;63.30;99442.50;4245403;28;20418;-72
2022/05/22 08:48:07;;;;;;;2.30;1.23;;;;;;;14.21;64.51;99444.06;4237002;28;20343;-72
2022/05/22 08:50:36;;;;;;;1.50;0.90;;;;;;;13.54;66.09;99442.56;4253439;28;20232;-75
2022/05/22 08:53:03;;;;;;;3.13;1.03;;;;;;;13.28;66.38;99443.09;4246536;28;20234;-74
2022/05/22 09:01:17;;;;;;;4.87;1.13;;;;;;;14.53;63.23;99444.50;4252484;28;20278;-73
2022/05/22 09:03:51;;;;;;;5.00;1.70;;;;;;;14.75;58.85;99450.66;4266848;28;20289;-74
2022/05/22 09:06:26;;;;;;;7.43;1.07;;;;;;;14.47;57.91;99455.97;4248239;28;20218;-72
2022/05/22 09:08:53;;;;;;;3.27;0.80;;;;;;;14.24;59.53;99454.38;4277100;28;20336;-70
2022/05/22 09:11:45;;;;;;;2.57;0.80;;;;;;;14.24;59.23;99454.38;4282882;28;23859;-71
2022/05/22 09:14:30;;;;;;;5.10;1.60;;;;;;;14.06;59.70;99465.53;4265255;28;20231;-72
2022/05/22 09:17:20;;;;;;;0.90;0.80;;;;;;;14.12;61.20;99458.59;4233196;28;20223;-73
2022/05/22 09:20:01;;;;;;;3.90;0.70;;;;;;;14.46;60.05;99459.69;4267486;28;20236;-71
2022/05/22 09:22:34;;;;;;;2.97;0.87;;;;;;;14.65;59.11;99455.53;4273651;28;20225;-73
2022/05/22 09:25:11;;;;;;;3.03;0.83;;;;;;;15.07;57.90;99454.53;4259403;28;20403;-74
2022/05/22 09:27:46;;;;;;;1.80;0.77;;;;;;;14.48;57.80;99431.69;4238980;28;20235;-69
2022/05/22 09:30:25;;;;;;;2.30;0.87;;;;;;;14.33;57.28;99449.72;4255639;28;20277;-71
2022/05/22 09:32:56;;;;;;;1.27;0.70;;;;;;;14.01;58.97;99445.72;4274070;28;20235;-74
2022/05/22 09:35:34;;;;;;;6.97;0.90;;;;;;;14.32;57.64;99446.19;4269386;28;20230;-75
2022/05/22 09:38:26;;;;;;;3.63;1.10;;;;;;;14.43;57.05;99447.53;4294395;28;22028;-70
2022/05/22 09:41:01;;;;;;;1.30;0.73;;;;;;;14.61;56.04;99444.41;4281068;28;20305;-73
2022/05/22 09:43:47;;;;;;;3.93;0.90;;;;;;;14.51;57.63;99458.06;4280203;28;20284;-75
2022/05/22 09:46:35;;;;;;;2.70;0.90;;;;;;;13.95;59.79;99449.97;4264072;28;20235;-73
2022/05/22 09:49:22;;;;;;;2.43;0.73;;;;;;;13.78;59.44;99446.72;4230018;28;20239;-72
2022/05/22 09:52:01;;;;;;;3.13;0.70;;;;;;;14.06;57.81;99449.47;4311031;28;25625;-72
2022/05/22 09:54:59;;;;;;;2.00;1.00;;;;;;;14.66;56.78;99459.88;4278269;28;22263;-71
2022/05/22 09:57:36;;;;;;;1.90;0.90;;;;;;;14.80;55.68;99452.72;4287176;28;20237;-72
2022/05/22 10:00:08;;;;;;;3.67;0.80;;;;;;;14.76;54.93;99445.09;4249191;28;21546;-70
2022/05/22 10:02:40;;;;;;;3.67;0.80;;;;;;;15.04;54.44;99452.25;4260736;28;21847;-73
2022/05/22 10:05:40;;;;;;;3.50;0.80;;;;;;;14.75;53.30;99443.47;4258377;28;22423;-70
2022/05/22 10:08:27;;;;;;;2.53;1.23;;;;;;;14.48;55.18;99463.00;4247673;28;20255;-71
2022/05/22 10:11:36;;;;;;;1.93;1.03;;;;;;;14.26;56.86;99448.84;4245050;28;20419;-71
2022/05/22 10:14:28;;;;;;;3.63;0.90;;;;;;;14.02;58.63;99461.56;4240127;28;21561;-71
2022/05/22 10:17:00;;;;;;;2.03;1.10;;;;;;;13.87;58.77;99453.63;4244951;28;20278;-69
2022/05/22 10:19:43;;;;;;;1.27;0.90;;;;;;;13.93;57.46;99450.19;4243176;28;21090;-72
2022/05/22 10:22:15;;;;;;;5.97;0.90;;;;;;;13.89;58.17;99440.88;4262090;28;22088;-71
2022/05/22 10:25:03;;;;;;;2.97;1.17;;;;;;;14.29;57.73;99453.78;4253926;28;21050;-70
2022/05/22 10:27:37;;;;;;;3.67;1.00;;;;;;;14.47;55.87;99445.25;4245445;28;20295;-72
2022/05/22 10:30:14;;;;;;;1.40;0.80;;;;;;;14.43;54.44;99450.19;4252252;28;21048;-72
2022/05/22 10:32:51;;;;;;;1.67;0.77;;;;;;;14.26;55.53;99457.69;4264090;28;20249;-70
2022/05/22 10:35:40;;;;;;;3.67;1.00;;;;;;;14.09;55.70;99449.09;4266937;28;20321;-74
2022/05/22 10:38:11;;;;;;;4.50;0.93;;;;;;;14.29;55.79;99465.31;4238794;28;21264;-69
2022/05/22 10:43:33;;;;;;;4.73;0.90;;;;;;;14.24;54.64;99457.06;4225894;28;20367;-71
2022/05/22 10:46:01;;;;;;;1.60;1.00;;;;;;;14.40;54.33;99455.94;4230104;28;20223;-73
2022/05/22 10:48:31;;;;;;;2.00;0.90;;;;;;;14.42;55.11;99461.09;4272679;28;20408;-75
2022/05/22 10:51:05;;;;;;;3.30;1.00;;;;;;;14.51;56.13;99459.94;4253561;28;20233;-69
2022/05/22 10:53:49;;;;;;;3.90;1.13;;;;;;;14.42;55.73;99453.06;4275850;28;20262;-73
2022/05/22 10:56:22;;;;;;;4.30;1.30;;;;;;;14.58;55.61;99460.84;4247427;28;20406;-73
2022/05/22 10:58:52;;;;;;;2.47;1.00;;;;;;;14.73;54.22;99461.56;4243489;28;21192;-71
2022/05/22 11:01:21;;;;;;;5.50;1.00;;;;;;;14.60;54.40;99460.66;4230213;28;21805;-68
2022/05/22 11:03:48;;;;;;;2.33;0.97;;;;;;;14.90;54.69;99469.28;4260300;28;20240;-72
2022/05/22 11:06:21;;;;;;;3.97;1.40;;;;;;;15.05;54.19;99461.94;4220043;28;20428;-72
2022/05/22 11:08:53;;;;;;;4.57;1.03;;;;;;;15.17;55.25;99456.84;4293805;28;25147;-72
2022/05/22 11:11:24;;;;;;;2.80;1.10;;;;;;;14.90;56.16;99466.63;4246831;28;20234;-71
2022/05/22 11:13:51;;;;;;;3.63;1.33;;;;;;;14.70;56.93;99463.78;4268406;28;20224;-74
2022/05/22 11:16:24;;;;;;;1.40;1.00;;;;;;;14.70;57.66;99461.97;4257752;28;20229;-71
2022/05/22 11:19:02;;;;;;;3.30;1.30;;;;;;;14.75;57.54;99458.72;4227457;28;21840;-70
2022/05/22 11:21:35;;;;;;;2.07;1.00;;;;;;;14.99;55.12;99465.44;4253149;28;21482;-72
2022/05/22 11:24:15;;;;;;;3.43;1.10;;;;;;;14.81;55.64;99468.63;4228703;28;20233;-73
2022/05/22 11:26:58;;;;;;;7.63;1.27;;;;;;;14.56;55.71;99461.03;4266907;28;20312;-71
2022/05/22 11:29:39;;;;;;;2.63;1.00;;;;;;;14.60;56.32;99466.81;4245815;28;21744;-73
2022/05/22 11:32:19;;;;;;;3.53;1.33;;;;;;;14.44;57.03;99467.06;4241340;28;20223;-71
2022/05/22 11:35:14;;;;;;;2.27;0.90;;;;;;;14.63;57.33;99471.78;4237079;28;20304;-70
2022/05/22 11:38:00;;;;;;;2.50;1.00;;;;;;;14.83;57.06;99471.94;4237536;28;20234;-71
2022/05/22 11:40:33;;;;;;;2.13;0.83;;;;;;;14.92;56.77;99469.94;4244890;28;21371;-70
2022/05/22 11:43:11;;;;;;;1.50;1.10;;;;;;;14.64;57.86;99473.44;4219020;28;20277;-68
2022/05/22 11:45:51;;;;;;;2.13;1.20;;;;;;;14.80;57.57;99471.47;4243293;28;20244;-71
2022/05/22 11:48:33;;;;;;;4.97;1.17;;;;;;;14.78;55.37;99475.19;4252020;28;20289;-69
2022/05/22 11:51:27;;;;;;;2.43;1.10;;;;;;;14.90;53.45;99477.34;4252208;28;21729;-70
2022/05/22 11:54:29;;;;;;;2.33;1.23;;;;;;;14.86;52.83;99476.88;4253683;28;23080;-72
2022/05/22 11:57:23;;;;;;;1.80;0.97;;;;;;;14.98;53.06;99479.84;4260051;28;20222;-70
2022/05/22 12:00:15;;;;;;;2.00;1.30;;;;;;;15.15;52.60;99475.84;4290426;28;21459;-70
2022/05/22 12:03:06;;;;;;;5.43;1.20;;;;;;;15.60;52.84;99478.09;4257789;28;20238;-72
2022/05/22 12:05:51;;;;;;;3.43;1.40;;;;;;;15.68;51.81;99479.75;4252852;28;20231;-69
2022/05/22 12:08:22;;;;;;;1.67;1.00;;;;;;;15.34;53.49;99482.31;4256013;28;20330;-70
2022/05/22 12:11:01;;;;;;;3.57;1.10;;;;;;;15.60;52.62;99478.91;4251686;28;26055;-71